createdAt,value
2023-02-05T00:00:10.538Z,-0.40
2023-02-05T00:06:12.951Z,-0.50
2023-02-05T00:12:15.286Z,-0.60
2023-02-05T00:18:17.389Z,-0.60
2023-02-05T00:24:19.518Z,-0.60
2023-02-05T00:30:21.783Z,-0.70
2023-02-05T00:36:24.330Z,-0.70
2023-02-05T00:42:27.683Z,-0.70
2023-02-05T00:48:29.985Z,-0.70
2023-02-05T00:54:32.263Z,-0.70
2023-02-05T01:00:34.901Z,-0.60
2023-02-05T01:06:37.120Z,-0.60
2023-02-05T01:12:39.242Z,-0.60
2023-02-05T01:18:42.017Z,-0.60
2023-02-05T01:24:44.078Z,-0.70
2023-02-05T01:30:50.540Z,-0.70
2023-02-05T01:36:53.068Z,-0.60
2023-02-05T01:42:55.237Z,-0.70
2023-02-05T01:48:59.255Z,-0.70
2023-02-05T01:55:02.799Z,-0.70
2023-02-05T02:01:05.100Z,-0.60
2023-02-05T02:07:09.760Z,-0.70
2023-02-05T02:13:13.150Z,-0.70
2023-02-05T02:19:24.487Z,-0.60
2023-02-05T02:25:33.263Z,-0.60
2023-02-05T02:31:42.996Z,-0.50
2023-02-05T02:38:11.445Z,-0.50
2023-02-05T02:44:27.683Z,-0.50
2023-02-05T02:50:37.294Z,-0.50
2023-02-05T02:56:41.041Z,-0.50
2023-02-05T03:02:45.568Z,-0.50
2023-02-05T03:08:56.388Z,-0.60
2023-02-05T03:15:00.284Z,-0.60
2023-02-05T03:21:09.486Z,-0.60
2023-02-05T03:27:12.116Z,-0.60
2023-02-05T03:33:34.239Z,-0.60
2023-02-05T03:40:00.926Z,-0.60
2023-02-05T03:46:05.156Z,-0.60
2023-02-05T03:52:17.189Z,-0.70
2023-02-05T03:58:27.466Z,-0.70
2023-02-05T04:04:31.706Z,-0.70
2023-02-05T04:10:34.253Z,-0.70
2023-02-05T04:16:38.186Z,-0.80
2023-02-05T04:22:40.604Z,-0.80
2023-02-05T04:28:43.632Z,-0.80
2023-02-05T04:34:47.699Z,-0.80
2023-02-05T04:40:50.284Z,-0.80
2023-02-05T04:46:52.488Z,-0.90
2023-02-05T04:52:54.970Z,-0.90
2023-02-05T04:58:57.412Z,-0.90
2023-02-05T05:04:59.693Z,-0.90
2023-02-05T05:11:06.612Z,-1.00
2023-02-05T05:17:08.790Z,-1.00
2023-02-05T05:23:11.036Z,-1.00
2023-02-05T05:29:13.176Z,-1.10
2023-02-05T05:35:15.414Z,-1.10
2023-02-05T05:41:42.778Z,-1.20
2023-02-05T05:47:44.865Z,-1.20
2023-02-05T05:53:47.632Z,-1.20
2023-02-05T05:59:49.751Z,-1.10
2023-02-05T06:05:52.181Z,-1.00
2023-02-05T06:11:54.320Z,-0.90
2023-02-05T06:17:56.631Z,-0.80
2023-02-05T06:23:58.925Z,-0.70
2023-02-05T06:30:01.468Z,-0.40
2023-02-05T06:36:04.355Z,0.30
2023-02-05T06:42:07.076Z,3.00
2023-02-05T06:48:09.444Z,4.10
2023-02-05T06:54:11.841Z,5.70
2023-02-05T07:00:14.876Z,5.70
2023-02-05T07:06:17.650Z,5.90
2023-02-05T07:12:23.333Z,7.70
2023-02-05T07:18:25.672Z,4.80
2023-02-05T07:24:27.964Z,3.30
2023-02-05T07:30:30.325Z,3.20
2023-02-05T07:36:32.862Z,3.80
2023-02-05T07:42:35.095Z,3.40
2023-02-05T07:48:39.097Z,4.70
2023-02-05T07:54:41.457Z,8.10
2023-02-05T08:00:44.127Z,9.80
2023-02-05T08:06:49.402Z,10.10
2023-02-05T08:12:51.910Z,13.10
2023-02-05T08:18:54.468Z,12.00
2023-02-05T08:24:56.924Z,10.70
2023-02-05T08:30:59.193Z,10.00
2023-02-05T08:37:01.650Z,9.50
2023-02-05T08:43:04.162Z,8.50
2023-02-05T08:49:06.498Z,8.60
2023-02-05T08:55:09.205Z,8.50
2023-02-05T09:01:13.198Z,9.20
2023-02-05T09:07:16.002Z,6.40
2023-02-05T09:13:18.342Z,6.50
2023-02-05T09:19:20.830Z,6.70
2023-02-05T09:25:23.234Z,5.70
2023-02-05T09:31:25.632Z,4.60
2023-02-05T09:37:28.520Z,4.40
2023-02-05T09:43:56.916Z,4.00
2023-02-05T09:50:17.854Z,3.70
2023-02-05T09:56:21.424Z,3.70
2023-02-05T10:02:42.433Z,4.20
2023-02-05T10:08:50.424Z,4.30
2023-02-05T10:15:28.809Z,4.50
2023-02-05T10:22:19.005Z,4.80
2023-02-05T10:28:43.181Z,4.20
2023-02-05T10:35:17.596Z,4.00
2023-02-05T10:41:32.107Z,3.90
2023-02-05T10:48:10.223Z,3.80
2023-02-05T10:54:26.736Z,3.60
2023-02-05T11:00:29.349Z,3.10
2023-02-05T11:06:40.184Z,2.80
2023-02-05T11:12:48.484Z,3.50
2023-02-05T11:18:59.817Z,3.80
2023-02-05T11:25:06.434Z,3.90
2023-02-05T11:31:29.109Z,3.80
2023-02-05T11:37:31.451Z,3.40
2023-02-05T11:43:47.079Z,3.50
2023-02-05T11:49:51.808Z,3.90
2023-02-05T11:56:03.641Z,4.60
2023-02-05T12:02:26.540Z,6.80
2023-02-05T12:09:01.323Z,8.60
2023-02-05T12:15:27.697Z,7.80
2023-02-05T12:21:33.110Z,7.10
2023-02-05T12:27:44.174Z,5.50
2023-02-05T12:33:52.772Z,4.00
2023-02-05T12:40:07.414Z,3.30
2023-02-05T12:46:15.572Z,2.90
2023-02-05T12:52:21.439Z,2.30
2023-02-05T12:58:28.141Z,1.70
2023-02-05T13:04:39.466Z,1.60
2023-02-05T13:11:25.873Z,1.70
2023-02-05T13:17:30.855Z,1.30
2023-02-05T13:23:54.777Z,1.20
2023-02-05T13:29:56.988Z,1.20
2023-02-05T13:36:14.304Z,1.00
2023-02-05T13:42:34.754Z,1.10
2023-02-05T13:49:28.006Z,0.70
2023-02-05T13:56:03.994Z,0.70
2023-02-05T14:02:20.795Z,0.50
2023-02-05T14:08:27.037Z,0.50
2023-02-05T14:14:32.490Z,0.70
2023-02-05T14:20:37.912Z,0.40
2023-02-05T14:27:24.983Z,0.30
2023-02-05T14:33:43.806Z,0.30
2023-02-05T14:39:46.099Z,0.10
2023-02-05T14:45:51.544Z,-0.20
2023-02-05T14:52:19.565Z,-0.30
2023-02-05T14:58:32.679Z,-0.20
2023-02-05T15:04:34.898Z,-0.20
2023-02-05T15:11:07.129Z,-0.40
2023-02-05T15:17:14.438Z,-0.40
2023-02-05T15:23:38.763Z,-0.40
2023-02-05T15:29:57.547Z,-0.40
2023-02-05T15:36:02.172Z,-0.60
2023-02-05T15:42:06.664Z,-0.60
2023-02-05T15:48:11.812Z,-0.80
2023-02-05T15:54:20.631Z,-0.90
2023-02-05T16:00:27.642Z,-1.00
2023-02-05T16:06:30.643Z,-1.00
2023-02-05T16:12:32.745Z,-1.00
2023-02-05T16:18:40.864Z,-1.00
2023-02-05T16:24:44.145Z,-1.10
2023-02-05T16:30:48.366Z,-1.20
2023-02-05T16:36:52.652Z,-1.40
2023-02-05T16:42:54.880Z,-1.60
2023-02-05T16:49:17.050Z,-1.70
2023-02-05T16:55:25.594Z,-1.90
2023-02-05T17:01:43.135Z,-2.00
2023-02-05T17:08:03.546Z,-2.10
2023-02-05T17:14:33.000Z,-2.20
2023-02-05T17:20:35.512Z,-2.20
2023-02-05T17:26:41.007Z,-2.30
2023-02-05T17:32:43.534Z,-2.40
2023-02-05T17:38:47.234Z,-2.50
2023-02-05T17:44:50.190Z,-2.60
2023-02-05T17:50:55.158Z,-2.70
2023-02-05T17:57:05.219Z,-2.70
2023-02-05T18:03:07.268Z,-2.80
2023-02-05T18:09:10.411Z,-2.90
2023-02-05T18:15:12.983Z,-2.90
2023-02-05T18:21:15.485Z,-3.00
2023-02-05T18:27:17.743Z,-3.00
2023-02-05T18:33:19.775Z,-3.00
2023-02-05T18:39:22.032Z,-3.00
2023-02-05T18:45:24.514Z,-3.00
2023-02-05T18:51:26.962Z,-3.00
2023-02-05T18:57:29.406Z,-3.00
2023-02-05T19:03:31.281Z,-3.00
2023-02-05T19:09:33.760Z,-3.00
2023-02-05T19:15:35.887Z,-3.10
2023-02-05T19:21:37.910Z,-3.10
2023-02-05T19:27:40.058Z,-3.10
2023-02-05T19:33:42.546Z,-3.10
2023-02-05T19:39:44.696Z,-3.00
2023-02-05T19:45:47.906Z,-2.90
2023-02-05T19:51:55.415Z,-2.90
2023-02-05T19:57:57.761Z,-2.90
2023-02-05T20:04:06.520Z,-2.90
2023-02-05T20:10:08.885Z,-2.90
2023-02-05T20:16:17.361Z,-2.90
2023-02-05T20:22:20.404Z,-2.90
2023-02-05T20:28:22.738Z,-2.60
2023-02-05T20:34:30.976Z,-2.40
2023-02-05T20:40:33.891Z,-2.20
2023-02-05T20:46:36.328Z,-2.10
2023-02-05T20:52:38.472Z,-2.00
2023-02-05T20:58:40.821Z,-1.90
2023-02-05T21:04:43.120Z,-1.90
2023-02-05T21:10:45.485Z,-2.10
2023-02-05T21:16:47.582Z,-2.10
2023-02-05T21:29:30.895Z,-2.30
2023-02-05T21:35:33.179Z,-2.40
2023-02-05T21:41:35.218Z,-2.40
2023-02-05T21:47:50.760Z,-2.30
2023-02-05T21:53:59.169Z,-2.10
2023-02-05T22:00:04.539Z,-2.00
2023-02-05T22:06:14.533Z,-2.00
2023-02-05T22:12:19.357Z,-1.90
2023-02-05T22:18:21.925Z,-1.80
2023-02-05T22:24:24.249Z,-1.80
2023-02-05T22:30:26.835Z,-1.70
2023-02-05T22:36:30.200Z,-1.70
2023-02-05T22:42:33.364Z,-1.70
2023-02-05T22:48:40.183Z,-1.60
2023-02-05T22:54:42.619Z,-1.60
2023-02-05T23:00:44.824Z,-1.50
2023-02-05T23:06:47.100Z,-1.60
2023-02-05T23:12:49.240Z,-1.60
2023-02-05T23:18:57.501Z,-1.50
2023-02-05T23:25:00.785Z,-1.50
2023-02-05T23:31:03.484Z,-1.50
2023-02-05T23:37:06.088Z,-1.40
2023-02-05T23:43:08.374Z,-1.40
2023-02-05T23:49:10.936Z,-1.30
2023-02-05T23:55:13.255Z,-1.20
